createdAt,value
2019-05-17T00:00:59.851Z,5.27
2019-05-17T00:03:36.469Z,6.87
2019-05-17T00:06:11.659Z,6.00
2019-05-17T00:08:50.359Z,5.07
2019-05-17T00:11:23.159Z,5.73
2019-05-17T00:14:00.879Z,5.13
2019-05-17T00:16:33.162Z,5.27
2019-05-17T00:19:07.294Z,4.87
2019-05-17T00:21:36.922Z,8.90
2019-05-17T00:26:59.967Z,8.97
2019-05-17T00:29:31.402Z,12.67
2019-05-17T00:32:01.813Z,6.30
2019-05-17T00:34:31.433Z,9.00
2019-05-17T00:37:01.485Z,5.87
2019-05-17T00:39:31.571Z,8.90
2019-05-17T00:42:07.207Z,7.33
2019-05-17T00:44:37.828Z,12.43
2019-05-17T00:47:08.292Z,6.87
2019-05-17T00:49:39.089Z,8.97
2019-05-17T00:52:08.754Z,6.43
2019-05-17T00:54:43.218Z,12.07
2019-05-17T00:57:16.627Z,8.07
2019-05-17T00:59:47.598Z,10.03
2019-05-17T01:02:17.197Z,10.40
2019-05-17T01:04:50.587Z,8.33
2019-05-17T01:07:23.335Z,8.00
2019-05-17T01:09:56.541Z,8.67
2019-05-17T01:12:27.139Z,8.57
2019-05-17T01:14:58.783Z,11.17
2019-05-17T01:17:29.216Z,6.97
2019-05-17T01:19:58.721Z,11.17
2019-05-17T01:22:28.879Z,13.17
2019-05-17T01:24:59.646Z,7.37
2019-05-17T01:27:38.227Z,7.83
2019-05-17T01:30:09.684Z,8.93
2019-05-17T01:32:39.241Z,8.60
2019-05-17T01:35:09.045Z,8.83
2019-05-17T01:37:39.391Z,12.30
2019-05-17T01:40:17.546Z,12.77
2019-05-17T01:43:07.564Z,11.37
2019-05-17T01:45:29.544Z,9.23
2019-05-17T01:47:59.110Z,11.37
2019-05-17T01:50:29.745Z,12.33
2019-05-17T01:53:02.134Z,11.10
2019-05-17T01:55:31.569Z,12.20
2019-05-17T01:58:01.527Z,8.53
2019-05-17T02:00:34.143Z,8.83
2019-05-17T02:03:04.021Z,8.20
2019-05-17T02:05:32.825Z,11.13
2019-05-17T02:08:02.719Z,11.47
2019-05-17T02:10:32.141Z,10.63
2019-05-17T02:13:02.140Z,12.67
2019-05-17T02:15:33.247Z,11.17
2019-05-17T02:18:07.114Z,10.03
2019-05-17T02:20:37.466Z,9.23
2019-05-17T02:23:07.645Z,11.57
2019-05-17T02:25:37.419Z,9.60
2019-05-17T02:28:07.050Z,12.33
2019-05-17T02:30:37.063Z,12.40
2019-05-17T02:33:06.747Z,13.73
2019-05-17T02:35:36.261Z,12.73
2019-05-17T02:38:04.058Z,11.90
2019-05-17T02:40:34.469Z,11.77
2019-05-17T02:43:04.114Z,11.20
2019-05-17T02:45:34.339Z,11.53
2019-05-17T02:48:04.284Z,10.70
2019-05-17T02:50:34.928Z,15.13
2019-05-17T02:53:08.139Z,14.37
2019-05-17T02:55:38.453Z,11.87
2019-05-17T02:58:08.096Z,12.07
2019-05-17T03:00:54.694Z,14.67
2019-05-17T03:03:24.708Z,13.33
2019-05-17T03:05:55.679Z,18.57
2019-05-17T03:08:34.434Z,15.25
2019-05-17T03:11:13.702Z,13.57
2019-05-17T03:13:45.181Z,15.00
2019-05-17T03:16:24.106Z,15.50
2019-05-17T03:19:13.249Z,13.63
2019-05-17T03:21:46.228Z,13.77
2019-05-17T03:24:22.647Z,15.00
2019-05-17T03:26:52.922Z,18.07
2019-05-17T03:29:33.696Z,13.43
2019-05-17T03:34:44.511Z,14.37
2019-05-17T03:37:39.057Z,15.70
2019-05-17T03:46:44.477Z,14.67
2019-05-17T03:49:39.155Z,15.00
2019-05-17T03:52:02.775Z,12.70
2019-05-17T03:54:36.842Z,14.10
2019-05-17T03:57:06.716Z,11.20
2019-05-17T04:02:13.363Z,12.60
2019-05-17T04:04:43.241Z,12.23
2019-05-17T04:07:28.117Z,13.97
2019-05-17T04:09:59.186Z,12.93
2019-05-17T04:12:32.751Z,14.03
2019-05-17T04:15:03.409Z,14.17
2019-05-17T04:17:34.187Z,12.07
2019-05-17T04:20:04.078Z,14.43
2019-05-17T04:22:33.908Z,15.07
2019-05-17T04:25:13.105Z,13.77
2019-05-17T04:27:43.820Z,11.93
2019-05-17T04:30:16.507Z,12.57
2019-05-17T04:32:48.472Z,11.73
2019-05-17T04:35:18.393Z,12.17
2019-05-17T04:37:47.926Z,13.90
2019-05-17T04:40:17.857Z,16.00
2019-05-17T04:42:47.630Z,16.57
2019-05-17T04:45:17.400Z,13.50
2019-05-17T04:47:53.012Z,12.70
2019-05-17T04:50:24.031Z,14.93
2019-05-17T04:52:54.038Z,11.87
2019-05-17T04:55:28.258Z,12.53
2019-05-17T04:58:03.850Z,12.70
2019-05-17T05:00:33.992Z,12.17
2019-05-17T05:03:07.605Z,13.50
2019-05-17T05:05:38.491Z,14.20
2019-05-17T05:08:08.316Z,14.57
2019-05-17T05:10:38.691Z,14.93
2019-05-17T05:13:08.676Z,13.07
2019-05-17T05:15:43.843Z,12.23
2019-05-17T05:18:13.811Z,13.17
2019-05-17T05:20:43.896Z,14.23
2019-05-17T05:23:13.768Z,18.60
2019-05-17T05:25:46.435Z,13.60
2019-05-17T05:28:16.286Z,16.17
2019-05-17T05:30:49.331Z,16.57
2019-05-17T05:33:22.193Z,15.10
2019-05-17T05:35:57.567Z,15.93
2019-05-17T05:38:27.023Z,15.00
2019-05-17T05:41:01.842Z,15.27
2019-05-17T05:43:32.653Z,14.20
2019-05-17T05:46:12.888Z,14.20
2019-05-17T05:48:44.123Z,17.90
2019-05-17T05:51:13.881Z,14.70
2019-05-17T05:53:44.054Z,15.33
2019-05-17T05:56:14.352Z,14.20
2019-05-17T05:58:43.781Z,14.03
2019-05-17T06:01:13.720Z,16.90
2019-05-17T06:03:43.329Z,15.37
2019-05-17T06:06:14.469Z,14.17
2019-05-17T06:08:44.880Z,17.37
2019-05-17T06:11:17.040Z,17.33
2019-05-17T06:13:46.471Z,15.33
2019-05-17T06:16:16.140Z,15.17
2019-05-17T06:18:46.051Z,19.10
2019-05-17T06:21:15.821Z,16.83
2019-05-17T06:23:45.862Z,25.93
2019-05-17T06:26:17.989Z,21.00
2019-05-17T06:28:48.218Z,18.00
2019-05-17T06:31:17.704Z,18.90
2019-05-17T06:33:47.707Z,17.50
2019-05-17T06:36:17.620Z,17.33
2019-05-17T06:38:47.327Z,16.93
2019-05-17T06:41:22.704Z,17.70
2019-05-17T06:43:52.755Z,16.87
2019-05-17T06:46:23.796Z,17.73
2019-05-17T06:48:53.909Z,19.70
2019-05-17T06:51:26.589Z,21.53
2019-05-17T06:54:04.366Z,17.70
2019-05-17T06:56:45.834Z,16.67
2019-05-17T06:59:22.350Z,19.47
2019-05-17T07:01:52.209Z,17.87
2019-05-17T07:04:58.216Z,15.83
2019-05-17T07:07:43.234Z,18.07
2019-05-17T07:10:19.684Z,15.43
2019-05-17T07:13:43.387Z,15.97
2019-05-17T07:16:39.476Z,15.70
2019-05-17T07:19:10.329Z,15.33
2019-05-17T07:22:21.196Z,16.63
2019-05-17T07:33:25.117Z,15.50
2019-05-17T07:35:59.375Z,14.83
2019-05-17T07:44:20.462Z,15.27
2019-05-17T07:46:54.632Z,13.07
2019-05-17T07:49:44.792Z,12.47
2019-05-17T07:52:20.557Z,13.80
2019-05-17T07:54:50.925Z,12.17
2019-05-17T07:57:31.156Z,13.20
2019-05-17T08:00:01.252Z,11.97
2019-05-17T08:02:31.514Z,11.93
2019-05-17T08:05:04.437Z,13.47
2019-05-17T08:10:13.840Z,10.20
2019-05-17T08:12:55.337Z,11.87
2019-05-17T08:15:30.434Z,10.60
2019-05-17T08:18:32.077Z,10.93
2019-05-17T08:21:03.353Z,10.70
2019-05-17T08:23:35.462Z,12.40
2019-05-17T08:26:05.931Z,11.83
2019-05-17T08:28:49.891Z,12.23
2019-05-17T08:34:15.051Z,11.27
2019-05-17T08:36:45.129Z,12.13
2019-05-17T08:39:23.388Z,11.27
2019-05-17T08:42:12.982Z,13.03
2019-05-17T08:44:50.539Z,12.07
2019-05-17T08:47:22.892Z,11.47
2019-05-17T08:50:00.526Z,10.43
2019-05-17T08:52:42.091Z,11.10
2019-05-17T08:55:25.713Z,12.17
2019-05-17T08:58:00.851Z,12.00
2019-05-17T09:00:34.857Z,11.80
2019-05-17T09:03:38.038Z,11.50
2019-05-17T09:06:07.816Z,12.03
2019-05-17T09:08:42.571Z,13.00
2019-05-17T09:11:19.518Z,11.93
2019-05-17T09:14:01.955Z,12.53
2019-05-17T09:16:30.771Z,12.07
2019-05-17T09:19:01.699Z,12.93
2019-05-17T09:21:50.182Z,13.70
2019-05-17T09:24:34.598Z,11.30
2019-05-17T09:27:06.009Z,13.40
2019-05-17T09:29:35.542Z,13.03
2019-05-17T09:32:05.493Z,14.33
2019-05-17T09:34:55.988Z,10.37
2019-05-17T09:41:20.007Z,11.17
2019-05-17T09:43:52.685Z,13.73
2019-05-17T09:46:59.510Z,10.43
2019-05-17T09:49:36.901Z,14.17
2019-05-17T09:52:06.633Z,16.47
2019-05-17T09:57:49.633Z,11.57
2019-05-17T10:00:26.481Z,11.73
2019-05-17T10:06:00.041Z,12.10
2019-05-17T10:08:42.163Z,14.40
2019-05-17T10:12:20.249Z,14.27
2019-05-17T10:14:05.058Z,15.57
2019-05-17T10:16:50.786Z,14.20
2019-05-17T10:19:23.518Z,15.77
2019-05-17T10:21:51.773Z,12.33
2019-05-17T10:24:33.842Z,12.87
2019-05-17T10:26:53.189Z,12.40
2019-05-17T10:29:23.125Z,10.73
2019-05-17T10:31:54.792Z,11.00
2019-05-17T10:34:36.585Z,12.73
2019-05-17T10:37:10.523Z,12.70
2019-05-17T10:39:50.220Z,12.77
2019-05-17T10:42:24.108Z,11.27
2019-05-17T10:45:06.077Z,12.73
2019-05-17T10:47:42.090Z,11.70
2019-05-17T10:50:12.182Z,14.77
2019-05-17T10:52:42.787Z,11.77
2019-05-17T10:55:14.496Z,13.00
2019-05-17T10:57:44.087Z,11.37
2019-05-17T11:00:23.557Z,13.37
2019-05-17T11:03:03.369Z,11.27
2019-05-17T11:05:33.128Z,10.43
2019-05-17T11:08:20.934Z,11.60
2019-05-17T11:11:01.023Z,11.30
2019-05-17T11:13:40.230Z,11.20
2019-05-17T11:16:14.305Z,13.17
2019-05-17T11:19:08.919Z,12.07
2019-05-17T11:22:23.577Z,12.80
2019-05-17T11:25:33.014Z,12.30
2019-05-17T11:28:03.539Z,11.00
2019-05-17T11:30:40.872Z,11.37
2019-05-17T11:33:10.256Z,11.60
2019-05-17T11:35:40.156Z,10.23
2019-05-17T11:38:11.633Z,10.43
2019-05-17T11:41:20.679Z,9.13
2019-05-17T11:45:26.637Z,12.20
2019-05-17T11:47:54.596Z,10.77
2019-05-17T11:50:34.483Z,10.80
2019-05-17T11:53:05.828Z,10.23
2019-05-17T11:56:02.591Z,11.57
2019-05-17T11:58:38.973Z,8.80
2019-05-17T12:03:46.937Z,10.03
2019-05-17T12:09:53.573Z,8.37
2019-05-17T12:12:43.970Z,9.83
2019-05-17T12:21:42.976Z,9.60
2019-05-17T12:29:54.225Z,18.20
2019-05-17T12:33:26.210Z,10.13
2019-05-17T12:39:02.283Z,11.37
2019-05-17T12:41:50.988Z,12.33
2019-05-17T12:44:21.618Z,10.23
2019-05-17T12:46:51.429Z,11.40
2019-05-17T12:50:10.818Z,10.40
2019-05-17T12:52:49.782Z,12.77
2019-05-17T12:55:53.560Z,11.33
2019-05-17T12:58:46.332Z,11.07
2019-05-17T13:04:30.751Z,10.23
2019-05-17T13:07:08.018Z,11.43
2019-05-17T13:09:42.183Z,9.97
2019-05-17T13:12:32.631Z,9.83
2019-05-17T13:18:07.376Z,12.23
2019-05-17T13:20:49.038Z,14.70
2019-05-17T13:23:27.175Z,13.53
2019-05-17T13:26:00.618Z,14.17
2019-05-17T13:28:30.541Z,12.40
2019-05-17T13:31:02.708Z,12.03
2019-05-17T13:33:34.839Z,9.60
2019-05-17T13:36:04.726Z,10.50
2019-05-17T13:38:42.490Z,9.97
2019-05-17T13:41:11.963Z,12.10
2019-05-17T13:43:41.536Z,11.43
2019-05-17T13:46:11.693Z,10.67
2019-05-17T13:48:41.146Z,10.20
2019-05-17T13:51:11.334Z,8.00
2019-05-17T13:53:40.995Z,8.63
2019-05-17T13:56:10.350Z,8.00
2019-05-17T13:58:40.024Z,8.07
2019-05-17T14:01:09.740Z,7.70
2019-05-17T14:03:39.216Z,7.90
2019-05-17T14:06:11.016Z,6.80
2019-05-17T14:08:40.354Z,7.43
2019-05-17T14:11:10.268Z,9.63
2019-05-17T14:13:40.327Z,7.57
2019-05-17T14:16:09.858Z,7.53
2019-05-17T14:18:39.925Z,8.67
2019-05-17T14:21:09.430Z,8.97
2019-05-17T14:23:40.908Z,8.83
2019-05-17T14:26:10.274Z,8.97
2019-05-17T14:28:42.763Z,8.53
2019-05-17T14:31:12.289Z,8.40
2019-05-17T14:33:41.848Z,8.40
2019-05-17T14:36:11.169Z,8.83
2019-05-17T14:38:42.612Z,8.60
2019-05-17T14:41:12.220Z,8.47
2019-05-17T14:43:41.796Z,10.43
2019-05-17T14:46:11.136Z,9.30
2019-05-17T14:48:41.041Z,9.33
2019-05-17T14:51:10.508Z,9.40
2019-05-17T14:53:43.123Z,9.37
2019-05-17T14:56:12.694Z,8.87
2019-05-17T14:59:11.806Z,10.70
2019-05-17T15:01:42.439Z,9.07
2019-05-17T15:04:19.906Z,8.17
2019-05-17T15:09:35.253Z,9.40
2019-05-17T15:12:05.004Z,8.83
2019-05-17T15:15:02.010Z,9.70
2019-05-17T15:18:01.998Z,9.83
2019-05-17T15:20:38.593Z,9.50
2019-05-17T15:23:20.188Z,8.43
2019-05-17T15:25:55.153Z,8.33
2019-05-17T15:28:29.614Z,9.43
2019-05-17T15:31:05.597Z,13.77
2019-05-17T15:33:52.471Z,10.40
2019-05-17T15:36:30.488Z,9.87
2019-05-17T15:39:01.795Z,9.47
2019-05-17T15:41:32.354Z,8.93
2019-05-17T15:44:04.003Z,9.63
2019-05-17T15:46:34.289Z,10.45
2019-05-17T15:49:06.321Z,11.30
2019-05-17T15:51:50.383Z,9.93
2019-05-17T15:54:26.297Z,8.03
2019-05-17T15:56:58.965Z,7.43
2019-05-17T15:59:38.075Z,10.20
2019-05-17T16:02:13.444Z,8.40
2019-05-17T16:04:46.187Z,10.57
2019-05-17T16:07:16.191Z,9.23
2019-05-17T16:09:55.028Z,8.10
2019-05-17T16:12:24.441Z,8.40
2019-05-17T16:14:54.164Z,10.20
2019-05-17T16:17:24.185Z,9.87
2019-05-17T16:19:54.766Z,10.77
2019-05-17T16:22:24.295Z,8.30
2019-05-17T16:24:53.897Z,10.60
2019-05-17T16:27:23.583Z,11.23
2019-05-17T16:29:53.258Z,9.97
2019-05-17T16:32:23.193Z,10.67
2019-05-17T16:34:52.765Z,10.77
2019-05-17T16:37:23.446Z,10.03
2019-05-17T16:39:52.944Z,9.67
2019-05-17T16:42:22.551Z,10.20
2019-05-17T16:44:52.115Z,11.00
2019-05-17T16:47:23.817Z,10.27
2019-05-17T16:49:58.256Z,9.30
2019-05-17T16:52:28.959Z,11.67
2019-05-17T16:54:58.857Z,12.00
2019-05-17T16:57:40.868Z,11.00
2019-05-17T17:00:31.235Z,12.87
2019-05-17T17:03:05.140Z,10.73
2019-05-17T17:05:36.181Z,10.70
2019-05-17T17:08:12.558Z,11.03
2019-05-17T17:10:43.592Z,10.27
2019-05-17T17:13:32.642Z,11.83
2019-05-17T17:16:52.738Z,10.70
2019-05-17T17:19:25.389Z,11.27
2019-05-17T17:21:55.550Z,11.77
2019-05-17T17:24:28.147Z,11.70
2019-05-17T17:27:06.770Z,10.60
2019-05-17T17:29:42.597Z,10.27
2019-05-17T17:32:22.850Z,12.40
2019-05-17T17:35:13.176Z,10.13
2019-05-17T17:37:52.790Z,9.90
2019-05-17T17:40:45.657Z,11.83
2019-05-17T17:43:17.170Z,13.53
2019-05-17T17:45:52.617Z,12.97
2019-05-17T17:48:24.785Z,13.53
2019-05-17T17:50:57.203Z,18.53
2019-05-17T17:53:27.049Z,15.40
2019-05-17T17:55:56.937Z,13.20
2019-05-17T17:58:26.438Z,12.53
2019-05-17T18:00:55.892Z,15.13
2019-05-17T18:03:26.586Z,15.17
2019-05-17T18:05:58.267Z,15.33
2019-05-17T18:08:27.367Z,17.80
2019-05-17T18:11:02.918Z,15.30
2019-05-17T18:13:32.311Z,20.07
2019-05-17T18:16:01.750Z,18.83
2019-05-17T18:18:32.810Z,19.40
2019-05-17T18:21:02.248Z,21.13
2019-05-17T18:23:31.844Z,19.03
2019-05-17T18:26:06.208Z,20.83
2019-05-17T18:28:35.731Z,19.43
2019-05-17T18:31:13.662Z,22.70
2019-05-17T18:33:46.016Z,19.90
2019-05-17T18:36:17.316Z,21.40
2019-05-17T18:38:57.026Z,21.80
2019-05-17T18:41:45.647Z,24.00
2019-05-17T18:44:27.767Z,21.33
2019-05-17T18:46:55.972Z,22.93
2019-05-17T18:49:27.334Z,21.13
2019-05-17T18:51:56.985Z,25.50
2019-05-17T18:54:28.218Z,23.00
2019-05-17T18:56:57.932Z,23.43
2019-05-17T18:59:34.940Z,25.50
2019-05-17T19:02:04.502Z,25.93
2019-05-17T19:04:34.339Z,24.10
2019-05-17T19:07:03.943Z,25.70
2019-05-17T19:09:57.752Z,27.07
2019-05-17T19:12:27.420Z,26.63
2019-05-17T19:15:06.736Z,26.53
2019-05-17T19:17:38.205Z,23.13
2019-05-17T19:20:16.838Z,25.77
2019-05-17T19:22:53.953Z,31.43
2019-05-17T19:25:45.076Z,27.93
2019-05-17T19:28:19.621Z,28.70
2019-05-17T19:30:49.857Z,27.33
2019-05-17T19:33:27.390Z,30.77
2019-05-17T19:36:10.585Z,31.93
2019-05-17T19:39:01.738Z,28.37
2019-05-17T19:45:45.585Z,24.13
2019-05-17T19:54:40.422Z,24.87
2019-05-17T20:01:13.639Z,27.13
2019-05-17T20:04:14.004Z,29.23
2019-05-17T20:07:03.230Z,26.77
2019-05-17T20:09:32.858Z,26.10
2019-05-17T20:12:02.394Z,26.20
2019-05-17T20:14:34.198Z,27.63
2019-05-17T20:17:03.924Z,27.50
2019-05-17T20:19:34.846Z,29.67
2019-05-17T20:22:09.102Z,31.43
2019-05-17T20:24:44.714Z,25.93
2019-05-17T20:27:14.331Z,25.00
2019-05-17T20:29:47.177Z,28.27
2019-05-17T20:32:17.326Z,30.27
2019-05-17T20:34:46.877Z,27.43
2019-05-17T20:37:16.336Z,27.90
2019-05-17T20:39:49.006Z,27.73
2019-05-17T20:42:20.247Z,26.47
2019-05-17T20:44:54.081Z,27.43
2019-05-17T20:50:25.710Z,25.93
2019-05-17T20:55:39.944Z,24.80
2019-05-17T20:58:17.228Z,25.23
2019-05-17T21:00:50.911Z,22.73
2019-05-17T21:03:25.927Z,24.37
2019-05-17T21:06:36.018Z,23.03
2019-05-17T21:09:03.865Z,24.33
2019-05-17T21:15:47.633Z,21.63
2019-05-17T21:18:17.457Z,24.33
2019-05-17T21:20:52.115Z,22.80
2019-05-17T21:23:29.911Z,22.73
2019-05-17T21:26:14.167Z,27.67
2019-05-17T21:30:23.332Z,26.30
2019-05-17T22:02:33.210Z,23.13
2019-05-17T22:09:17.487Z,25.67
2019-05-17T22:16:43.461Z,24.50
2019-05-17T22:18:59.445Z,23.77
2019-05-17T22:21:37.591Z,22.40
2019-05-17T22:33:02.867Z,22.70
2019-05-17T22:43:59.534Z,27.00
2019-05-17T22:47:25.102Z,25.60
2019-05-17T22:54:23.858Z,23.37
2019-05-17T22:57:28.583Z,25.33
2019-05-17T23:01:04.607Z,25.33
2019-05-17T23:03:48.915Z,30.23
2019-05-17T23:06:26.046Z,24.63
2019-05-17T23:09:12.600Z,25.77
2019-05-17T23:11:49.767Z,24.23
2019-05-17T23:14:41.843Z,26.57
2019-05-17T23:17:16.031Z,27.27
2019-05-17T23:19:57.006Z,28.87
2019-05-17T23:22:30.758Z,26.57
2019-05-17T23:25:14.765Z,27.10
2019-05-17T23:28:38.535Z,28.23
2019-05-17T23:31:23.735Z,27.77
2019-05-17T23:33:59.080Z,26.80
2019-05-17T23:37:01.403Z,27.10
2019-05-17T23:39:34.303Z,27.37
2019-05-17T23:43:07.587Z,26.47
2019-05-17T23:57:00.852Z,30.80
